Accueil
METAR-TAF:

METAR-TAF

Aéroports :

Exeter, Angleterre

Aéroport international d'Exeter

latitude: 50-44N, longitude: 003-25W, altitude: 30 m

Observation

Le bulletin a été fait il y a 25 minutes, à 16:20 UTC
Vent 12 kt de ouest/nord-ouest
Température 17°C
Humidité 59%
Pression 1021 hPa
Visibilité 10 km ou plus
Nuages épars à une hauteur de 3500 ft

METAR: EGTE 191620Z 29012KT 9999 SCT035 17/09 Q1021

Heure: 17:45 (16:45 UTC)

Prévision

Le bulletin a été fait il y a 2 heures et 43 minutes, à 14:02 UTC
Prévision valable du 19 à 15 UTC au 19 à 24 UTC
Vent 12 kt de ouest
Visibilité 10 km ou plus
Nuages épars à une hauteur de 3000 ft
Probabilité 40% :
Temporairement
du 19 à 15 UTC au 19 à 17 UTC
Vent 15 kt de ouest avec des rafales jusqu'à 25 kt
Evoluant progressivement
du 19 à 18 UTC au 19 à 21 UTC
Vent 4 kt de direction variable

TAF: EGTE 191402Z 1915/1924 27012KT 9999 SCT030 PROB40 TEMPO 1915/1917 28015G25KT BECMG 1918/1921 VRB04KT

Observations et prévisions météorologiques de plus de 4000 aéroports (messages METAR et TAF).

Les stations disponibles sont représentées par des disques jaunes et rouges sur la carte.

Passer la souris dessus pour voir le nom de la station.

Cliquer dessus pour voir les observations et prévisions météorologiques.

Pour changer de carte: cliquez sur les boutons verts avec une croix noire pour zoomer, sur le bouton vert avec un tiret pour effectuer un zoom arrière, ou sur les flèches vertes pour les cartes adjacentes.


METAR-TAF: